Terminal Aerodrome Forecast
Issued by NWS Paducah, KY

Home | Current Version | Previous Version | Text Only | Print | Product List | Glossary Off
Versions: 1 2 3 4 5 6 7 8 9 10 11 12 13 14 15 16 17 18

000
FTUS43 KPAH 282340
TAFEVV
TAF
KEVV 282340Z 2900/2924 20007KT P6SM VCSH SCT040 BKN070
     FM290700 22007KT P6SM BKN150
     FM291500 26011G16KT P6SM BKN040=

USA.gov is the U.S. government's official web portal to all federal, state and local government web resources and services.